X  Chiuso Dati meteorologici dell'aviazione (METAR)     EHAM Amsterdam Airport Schiphol
Temperatura
21°C Temperatura
13°C Punto di rugiada
60% Umidità



Vento
8 KM/O
5 MPH
2 M/S
4 KTS



170°
S
Condizioni attuali

Parzialmente nuvoloso Parzialmente nuvoloso
Pressione 1011.85 (hPa) - 29.88 (inHg)
Visibilità 6 (miglio) - 9.7 (km)
Aeroporto
Codice-Aeroporto EHAM

Posizione: Amsterdam Airport Schiphol
Distanza: 26 (km)

Metar:
EHAM 150825Z 17004KT 130V230 9999 FEW045 21/13 Q1012 NOSIG

Ore: 15-07-2024 10:25 CEST